KTVF/TVF METAR and TAF weather

Enter ICAO airport designator
Station Type Date Time Source
KTVF METAR 2019/08/22 03:56 UTC NOAA

KTVF 220356Z AUTO 00000KT 10SM OVC065 13/09 A3010 RMK AO2 SLP196 T01280094


Station Type Date Time Source
KTVF Decoded METAR 2019/08/22 03:56 UTC NOAA

Station name not available
Aug 21, 2019 - 11:56 PM EDT / 2019.08.22 0356 UTC
Wind: Calm:0
Visibility: 10 mile(s):0
Sky conditions: overcast
Temperature: 55.0 F (12.8 C)
Dew Point: 48.9 F (9.4 C)
Relative Humidity: 79%
Pressure (altimeter): 30.1 in. Hg (1019 hPa)
ob: KTVF 220356Z AUTO 00000KT 10SM OVC065 13/09 A3010 RMK AO2 SLP196 T01280094
cycle: 4

Station Type Date Time Source
KTVF TAF 2019/08/21 23:24 UTC NOAA

TAF
AMD KTVF 212323Z 2123/2224 35007KT P6SM BKN060
FM220200 VRB04KT P6SM SCT060
FM221600 08006KT P6SM BKN060

Example: see airport list